CheckWX is a tool to help pilots better visualize weather data.  It is not intended as a substitute for an official pre-flight weather briefing.

12:23:30 UTC

CYMX METAR
Montreal International (Mirabel) Airport
Montréal, Quebec, Canada
Current

24 mins ago

CYMX 181200Z 05005KT 020V080 45SM SCT100 BKN250 M14/M18 A3001 RMK AC4CI3 SLP171
Observed
Feb-18 @ 12:00 UTC
Wind
  • 050° at 5 KTS
Visibility
45 SM
Flight Rules
VFR
Cloud Levels
  • Scattered at 10,000' AGL
  • Broken at 25,000' AGL
Temperature
-14°C / 7°F
Dewpoint
-18°C / -0°F
Humidity
72%
Altimeter
30.01" Hg
Pressure
1017.1 hPa
Previous

1 hour ago

CYMX 181100Z 05004KT 25SM BKN120 M15/M18 A3001 RMK AC7 SLP170
Observed
Feb-18 @ 11:00 UTC
Wind
  • 050° at 4 KTS
Visibility
25 SM
Flight Rules
VFR
Cloud Levels
  • Broken at 12,000' AGL
Temperature
-15°C / 5°F
Dewpoint
-18°C / -0°F
Humidity
78%
Altimeter
30.01" Hg
Pressure
1017 hPa
Previous

2 hours ago

CYMX 181000Z 05004KT 010V070 25SM FEW030 OVC110 M15/M18 A3001 RMK SC1AC8 SC TR SLP172
Observed
Feb-18 @ 10:00 UTC
Wind
  • 050° at 4 KTS
Visibility
25 SM
Flight Rules
VFR
Cloud Levels
  • Few at 3,000' AGL
  • Overcast at 11,000' AGL
Temperature
-15°C / 5°F
Dewpoint
-18°C / -0°F
Humidity
78%
Altimeter
30.01" Hg
Pressure
1017.2 hPa